Airfield :
LOGIN :

Register | Disclaimer

   EN    FR    IT 

 










Legend :    VFR   Marginal VFR   IFR   Intensive IFR   Very Intensive IFR
Visi :
Ceiling :
>= 8 km
>= 3000ft
5 to 8 km
1000 to 3000 ft
1500m to 5 km
500 to 1000 ft
800 to 1500m
200 to 500 ft
< 800m
< 200 ft
Symbols :   Thunderstorms  Fog  Heavy snow  Heavy precipitations  Wind > 20 kt
SIGMETs :     Misc.  Thunderstorms  Icing  Turbulence  Mountain Waves  Volcanic Ashes






- Airport Elevation : 24 ft
- IATA code : UME


ESNU - Umeå

CURRENT METAR :
  • 291550Z VRB02KT 8000 SCT002 BKN007 OVC009 M02/M02 Q1026

EXPIRED METARs :
  • 291520Z 25004KT 3500 BR OVC002 M02/M02 Q1027
  • 291450Z 23005KT 190V250 9999 OVC003 M02/M03 Q1027
  • 291420Z 21002KT 9999 SCT004 OVC012 M02/M03 Q1027
  • 291350Z 24003KT 9999 OVC012 M02/M02 Q1027
  • 291320Z 20002KT 9999 OVC014 M02/M02 Q1027

TAF AMD TAF ESNU
Valid from the 29 at 15:00 until the 30 at 00:00 UTC


291518Z 2915/2924 VRB02KT 9999 OVC003
TEMPO 2915/2924 2000 SG BR BKN010



MET'MAP, your aeronautical weather chart ! - Copyright ORBIFLY December 2007 - Disclaimer

ORBIFLY MET'MAP TEAM :

Programming & Development : Alexandra Zaïnal
Concept & original design : Baudouin d'Aumeries
Assistance for programming : Marc-Olivier Méhu
Technical & hardware support : Manuel Goepfert

Contact : metmap@orbifly.com




SOURCES & CREDITS :

   NOAA